Time;durP1;ratioP1;P1;durP2;ratioP2;P2;SDS_P1;SDS_P2;PMS_P1;PMS_P2;Temp;Humidity;BMP_temperature;BMP_pressure;BME280_temperature;BME280_humidity;BME280_pressure;Samples;Min_cycle;Max_cycle;Signal;HPM_P1;HPM_P2
2021/04/08 00:00:44;;;;;;;17.57;7.87;;;;;;;3.37;74.64;100670.34;1824182;78;21563;-49
2021/04/08 00:03:12;;;;;;;18.90;7.78;;;;;;;3.34;74.59;100669.03;1831122;78;21151;-49
2021/04/08 00:05:40;;;;;;;14.93;7.80;;;;;;;3.32;74.52;100661.55;1831086;78;21423;-49
2021/04/08 00:08:07;;;;;;;19.35;7.45;;;;;;;3.30;74.35;100675.25;1831122;78;21096;-49
2021/04/08 00:10:37;;;;;;;13.62;7.22;;;;;;;3.27;74.33;100684.55;1831112;78;21080;-49
2021/04/08 00:13:05;;;;;;;14.05;7.62;;;;;;;3.25;74.36;100670.44;1831111;78;21124;-49
2021/04/08 00:15:33;;;;;;;18.87;7.30;;;;;;;3.23;74.35;100665.59;1831096;78;21140;-48
2021/04/08 00:18:00;;;;;;;11.40;6.80;;;;;;;3.22;74.25;100669.13;1831110;78;21601;-49
2021/04/08 00:20:31;;;;;;;13.32;6.85;;;;;;;3.18;74.00;100666.03;1773960;80;21066;-49
2021/04/08 00:23:00;;;;;;;15.83;7.72;;;;;;;3.18;74.00;100666.03;1831122;78;21058;-49
2021/04/08 00:25:28;;;;;;;15.95;7.65;;;;;;;3.15;73.96;100674.44;1774002;80;21065;-48
2021/04/08 00:27:56;;;;;;;13.83;7.53;;;;;;;3.12;73.98;100678.44;1831161;78;21030;-48
2021/04/08 00:30:24;;;;;;;16.35;7.17;;;;;;;3.11;74.10;100679.33;1773982;80;21390;-49
2021/04/08 00:32:51;;;;;;;14.87;6.78;;;;;;;3.09;74.17;100681.11;1830970;78;21200;-48
2021/04/08 00:35:20;;;;;;;17.40;7.72;;;;;;;3.07;74.15;100681.56;1831104;78;21090;-49
2021/04/08 00:37:48;;;;;;;18.30;7.60;;;;;;;3.07;74.02;100688.19;1831185;78;21501;-48
2021/04/08 00:40:16;;;;;;;15.95;7.45;;;;;;;3.06;73.80;100691.72;1774049;80;21153;-48
2021/04/08 00:42:44;;;;;;;12.90;7.28;;;;;;;3.04;73.58;100695.25;1831158;78;21141;-48
2021/04/08 00:45:12;;;;;;;14.70;7.55;;;;;;;3.00;73.44;100696.59;1831011;78;21161;-48
2021/04/08 00:47:39;;;;;;;15.08;7.10;;;;;;;2.99;73.43;100696.62;1773961;80;21124;-48
2021/04/08 00:50:11;;;;;;;13.95;7.12;;;;;;;2.97;73.40;100728.83;1831042;78;21063;-48
2021/04/08 00:52:38;;;;;;;15.32;7.92;;;;;;;2.95;73.41;100739.45;1831028;78;21085;-48
2021/04/08 00:55:08;;;;;;;14.68;7.62;;;;;;;2.94;73.50;100712.95;1746233;80;21700;-49
2021/04/08 00:57:35;;;;;;;16.12;7.08;;;;;;;2.93;73.24;100708.55;1837093;78;21116;-49
2021/04/08 01:00:06;;;;;;;14.78;7.05;;;;;;;2.92;73.17;100722.67;1777180;79;21141;-49
2021/04/08 01:02:34;;;;;;;12.65;7.28;;;;;;;2.89;73.11;100717.39;1813127;78;21123;-49
2021/04/08 01:05:02;;;;;;;13.50;7.05;;;;;;;2.88;73.13;100760.66;1792838;80;21128;-49
2021/04/08 01:07:33;;;;;;;16.05;7.40;;;;;;;2.88;73.22;100759.33;1755947;79;21068;-48
2021/04/08 01:10:04;;;;;;;15.38;7.58;;;;;;;2.84;73.12;100755.37;1792717;80;21121;-49
2021/04/08 01:12:34;;;;;;;12.33;6.75;;;;;;;2.84;73.12;100757.12;1825161;78;21157;-49
2021/04/08 01:15:04;;;;;;;10.63;6.72;;;;;;;2.83;73.09;100754.04;1792762;80;21576;-48
2021/04/08 01:17:53;;;;;;;19.77;7.53;;;;;;;2.81;73.13;100754.06;1820086;78;21154;-49
2021/04/08 01:20:52;;;;;;;14.20;7.50;;;;;;;2.81;73.09;100755.39;1800912;79;21465;-48
2021/04/08 01:23:43;;;;;;;12.90;6.65;;;;;;;2.80;72.93;100756.27;1800864;79;21127;-48
2021/04/08 01:27:02;;;;;;;14.43;7.20;;;;;;;2.79;72.81;100746.56;1800952;79;21194;-48
2021/04/08 01:30:12;;;;;;;14.53;7.17;;;;;;;2.79;72.51;100761.13;1800906;79;21068;-48
2021/04/08 01:32:43;;;;;;;13.70;7.80;;;;;;;2.79;72.36;100771.72;1800903;79;21044;-48
2021/04/08 01:35:11;;;;;;;18.23;7.60;;;;;;;2.74;72.19;100754.08;1771743;79;21420;-48
2021/04/08 01:37:59;;;;;;;14.98;7.37;;;;;;;2.72;72.20;100742.16;1800876;79;21472;-48
2021/04/08 01:40:26;;;;;;;15.60;7.58;;;;;;;2.70;72.13;100743.92;1800979;79;21205;-49
2021/04/08 01:42:55;;;;;;;15.68;7.22;;;;;;;2.68;72.13;100729.81;1800998;79;21333;-49
2021/04/08 01:45:24;;;;;;;12.73;7.45;;;;;;;2.67;72.05;100769.98;1800456;79;21162;-48
2021/04/08 01:47:53;;;;;;;15.53;7.37;;;;;;;2.66;72.11;100792.48;1800951;79;21637;-48
2021/04/08 01:50:21;;;;;;;14.15;7.53;;;;;;;2.65;72.14;100794.27;1800795;79;21075;-48
2021/04/08 01:52:50;;;;;;;13.78;7.37;;;;;;;2.64;72.23;100792.92;1749147;79;21115;-48
2021/04/08 01:55:20;;;;;;;14.85;7.80;;;;;;;2.64;72.26;100788.95;1800816;79;21083;-48
2021/04/08 01:57:48;;;;;;;12.55;7.00;;;;;;;2.63;72.20;100772.17;1821407;78;21071;-48
2021/04/08 02:00:19;;;;;;;14.33;7.72;;;;;;;2.62;72.04;100794.70;1792683;80;21430;-48
2021/04/08 02:02:49;;;;;;;13.48;8.08;;;;;;;2.61;72.03;100800.42;1819529;78;21099;-48
2021/04/08 02:05:17;;;;;;;13.98;7.03;;;;;;;2.62;71.96;100798.67;1790250;80;21066;-49
2021/04/08 02:07:48;;;;;;;13.80;7.20;;;;;;;2.62;71.94;100803.96;1802173;79;21178;-48
2021/04/08 02:10:16;;;;;;;12.88;7.47;;;;;;;2.61;71.87;100820.73;1790205;80;21113;-48
2021/04/08 02:12:46;;;;;;;13.93;6.97;;;;;;;2.59;71.70;100815.42;1802045;79;21570;-48
2021/04/08 02:15:19;;;;;;;14.63;7.97;;;;;;;2.58;71.89;100817.20;1790215;80;21104;-48
2021/04/08 02:17:49;;;;;;;13.90;6.90;;;;;;;2.57;71.90;100806.60;1796039;79;21078;-49
2021/04/08 02:20:19;;;;;;;13.45;6.80;;;;;;;2.55;71.90;100801.33;1811675;79;21059;-48
2021/04/08 02:22:48;;;;;;;11.83;7.20;;;;;;;2.54;71.88;100814.13;1811696;79;21039;-48
2021/04/08 02:25:16;;;;;;;15.15;6.92;;;;;;;2.54;71.80;100806.61;1811793;79;22259;-49
2021/04/08 02:27:44;;;;;;;12.75;6.80;;;;;;;2.53;71.74;100805.72;1811587;79;21138;-49
2021/04/08 02:30:15;;;;;;;12.95;7.20;;;;;;;2.52;71.69;100811.89;1811650;79;21146;-49
2021/04/08 02:32:45;;;;;;;16.73;6.97;;;;;;;2.50;71.86;100819.41;1811580;79;21091;-49
2021/04/08 02:35:17;;;;;;;15.68;7.10;;;;;;;2.48;71.87;100820.73;1811731;79;21557;-49
2021/04/08 02:37:46;;;;;;;12.50;7.03;;;;;;;2.45;71.70;100834.42;1811707;79;21690;-49
2021/04/08 02:40:16;;;;;;;14.35;7.17;;;;;;;2.41;71.78;100822.48;1811540;79;21162;-49
2021/04/08 02:42:44;;;;;;;14.28;7.28;;;;;;;2.39;71.94;100820.74;1784255;79;21134;-49
2021/04/08 02:45:14;;;;;;;11.12;6.47;;;;;;;2.36;72.04;100819.42;1811609;79;21174;-49
2021/04/08 02:47:43;;;;;;;13.48;6.97;;;;;;;2.33;72.04;100835.30;1811656;79;21138;-48
2021/04/08 02:50:13;;;;;;;14.95;6.80;;;;;;;2.31;72.20;100837.03;1811640;79;21341;-48
2021/04/08 02:52:55;;;;;;;15.35;6.72;;;;;;;2.28;72.40;100825.57;1811533;79;21043;-48
2021/04/08 02:55:47;;;;;;;14.40;7.67;;;;;;;2.31;72.52;100833.97;1889376;76;22751;-48
2021/04/08 02:58:15;;;;;;;13.05;6.70;;;;;;;2.22;72.59;100830.87;1860413;77;21096;-49
2021/04/08 03:00:47;;;;;;;14.58;7.08;;;;;;;2.21;72.53;100833.50;1860256;77;21384;-48
2021/04/08 03:03:15;;;;;;;13.80;7.00;;;;;;;2.19;72.56;100837.91;1860215;77;20941;-49
2021/04/08 03:05:43;;;;;;;13.18;6.78;;;;;;;2.17;72.62;100841.89;1827412;77;21114;-48
2021/04/08 03:08:13;;;;;;;14.87;7.65;;;;;;;2.14;72.70;100854.66;1860231;77;21083;-48
2021/04/08 03:10:42;;;;;;;11.90;7.03;;;;;;;2.13;72.80;100861.30;1860060;77;21137;-49
2021/04/08 03:13:11;;;;;;;14.80;7.05;;;;;;;2.11;72.98;100857.77;1860285;77;21476;-49
2021/04/08 03:15:39;;;;;;;11.85;6.58;;;;;;;2.07;73.03;100858.19;1860421;77;21334;-49
2021/04/08 03:18:11;;;;;;;14.23;7.08;;;;;;;2.05;73.11;100869.63;1844043;77;21172;-48
2021/04/08 03:20:39;;;;;;;12.68;7.17;;;;;;;2.00;73.22;100878.91;1824783;78;21047;-49
2021/04/08 03:23:08;;;;;;;17.10;7.30;;;;;;;1.97;73.29;100879.77;1824813;78;21138;-48
2021/04/08 03:25:37;;;;;;;11.57;6.37;;;;;;;1.94;73.34;100874.89;1804500;78;21366;-49
2021/04/08 03:28:05;;;;;;;15.90;7.50;;;;;;;1.93;73.42;100876.67;1824797;78;21561;-49
2021/04/08 03:30:33;;;;;;;17.73;7.55;;;;;;;1.90;73.53;100877.99;1824780;78;21179;-49
2021/04/08 03:33:01;;;;;;;19.10;7.42;;;;;;;1.88;73.64;100882.40;1824791;78;21058;-49
2021/04/08 03:35:28;;;;;;;13.43;6.97;;;;;;;1.86;73.76;100873.55;1824808;78;21035;-49
2021/04/08 03:37:56;;;;;;;21.45;7.53;;;;;;;1.83;73.77;100873.55;1824826;78;21332;-49
2021/04/08 03:40:24;;;;;;;16.77;7.55;;;;;;;1.80;73.87;100877.50;1824722;78;21102;-49
2021/04/08 03:42:52;;;;;;;16.42;7.58;;;;;;;1.76;74.03;100885.85;1824755;78;21154;-48
2021/04/08 03:45:20;;;;;;;14.90;7.17;;;;;;;1.75;74.10;100881.91;1824807;78;21062;-48
2021/04/08 03:47:48;;;;;;;16.10;7.55;;;;;;;1.71;74.21;100885.86;1824835;78;21022;-49
2021/04/08 03:50:16;;;;;;;17.02;8.03;;;;;;;1.70;74.30;100883.20;1824785;78;21354;-48
2021/04/08 03:52:44;;;;;;;19.02;9.03;;;;;;;1.66;74.35;100890.25;1804635;78;21102;-48
2021/04/08 03:55:12;;;;;;;18.07;9.30;;;;;;;1.64;74.38;100899.91;1829299;78;22326;-49
2021/04/08 03:57:41;;;;;;;15.68;8.48;;;;;;;1.62;74.52;100906.95;1830675;78;21456;-49
2021/04/08 04:00:12;;;;;;;15.65;8.18;;;;;;;1.62;74.56;100904.30;1830581;77;21099;-49
2021/04/08 04:02:40;;;;;;;14.03;7.50;;;;;;;1.63;74.60;100915.33;1830514;78;21233;-49
2021/04/08 04:05:11;;;;;;;16.10;7.95;;;;;;;1.65;74.61;100928.10;1830258;78;21483;-49
2021/04/08 04:07:40;;;;;;;18.60;8.60;;;;;;;1.71;74.49;100921.97;1829998;78;21070;-49
2021/04/08 04:10:09;;;;;;;15.93;7.42;;;;;;;1.77;74.40;100931.70;1829954;78;21051;-49
2021/04/08 04:12:38;;;;;;;16.45;7.58;;;;;;;1.81;74.09;100938.76;1829913;78;21078;-49
2021/04/08 04:15:08;;;;;;;11.12;7.20;;;;;;;1.87;73.93;100938.77;1830061;78;21378;-48
2021/04/08 04:17:35;;;;;;;16.65;8.08;;;;;;;1.88;73.69;100942.31;1826065;78;21547;-49
2021/04/08 04:20:06;;;;;;;14.20;7.37;;;;;;;1.92;73.51;100946.31;1812995;79;21163;-49
2021/04/08 04:22:37;;;;;;;18.27;7.78;;;;;;;1.95;73.33;100943.67;1812893;79;21127;-49
2021/04/08 04:25:10;;;;;;;18.60;7.92;;;;;;;1.99;73.16;100945.45;1812904;78;21123;-49
2021/04/08 04:27:37;;;;;;;19.65;7.95;;;;;;;2.05;73.07;100956.49;1812932;79;21186;-49
2021/04/08 04:30:06;;;;;;;18.80;8.15;;;;;;;2.13;72.95;100958.71;1812812;79;21112;-48
2021/04/08 04:32:34;;;;;;;15.38;7.60;;;;;;;2.24;72.66;100963.17;1812864;78;21155;-48
2021/04/08 04:35:02;;;;;;;16.15;8.00;;;;;;;2.32;72.58;100969.36;1812852;78;21080;-48
2021/04/08 04:37:30;;;;;;;17.52;8.10;;;;;;;2.39;72.76;100979.52;1812984;78;21067;-48
2021/04/08 04:39:57;;;;;;;16.05;7.28;;;;;;;2.47;72.71;100973.80;1812950;79;21370;-49
2021/04/08 04:42:25;;;;;;;31.52;8.58;;;;;;;2.54;72.60;100970.30;1812861;79;21103;-48
2021/04/08 04:44:53;;;;;;;14.95;7.85;;;;;;;2.61;72.37;100961.91;1812949;78;21175;-48
2021/04/08 04:47:20;;;;;;;20.25;8.40;;;;;;;2.70;72.21;100967.66;1812970;78;21056;-49
2021/04/08 04:49:49;;;;;;;15.05;7.15;;;;;;;2.81;71.94;100970.31;1812998;79;21213;-49
2021/04/08 04:52:17;;;;;;;21.48;7.25;;;;;;;2.90;71.45;100960.16;1812424;79;21684;-49
2021/04/08 04:54:44;;;;;;;17.40;7.00;;;;;;;2.99;71.16;100960.19;1818191;78;21174;-48
2021/04/08 04:57:12;;;;;;;16.12;7.75;;;;;;;3.10;71.03;100969.45;1824793;78;21094;-49
2021/04/08 04:59:40;;;;;;;15.80;6.85;;;;;;;3.24;70.73;100968.11;1824139;78;20967;-49
2021/04/08 05:02:10;;;;;;;16.48;7.22;;;;;;;3.36;70.01;100965.42;1824214;78;21091;-49
2021/04/08 05:04:38;;;;;;;16.42;7.17;;;;;;;3.48;69.61;100966.30;1824081;78;21546;-49
2021/04/08 05:07:06;;;;;;;17.55;7.30;;;;;;;3.57;68.91;100968.92;1824047;78;21126;-48
2021/04/08 05:09:34;;;;;;;18.17;7.25;;;;;;;3.68;68.55;100979.07;1824086;78;21111;-49
2021/04/08 05:12:04;;;;;;;16.75;6.75;;;;;;;3.77;68.27;100990.52;1823998;78;21205;-49
2021/04/08 05:14:33;;;;;;;11.90;6.60;;;;;;;3.87;67.72;100986.52;1824066;78;21043;-49
2021/04/08 05:17:00;;;;;;;12.82;5.53;;;;;;;3.96;67.62;100990.01;1824111;78;21548;-49
2021/04/08 05:19:28;;;;;;;13.05;6.70;;;;;;;4.05;66.50;100989.09;1824035;78;21068;-49
2021/04/08 05:21:56;;;;;;;15.08;6.80;;;;;;;4.12;66.77;100990.39;1824112;78;21118;-49
2021/04/08 05:24:24;;;;;;;13.03;6.25;;;;;;;4.21;66.51;100980.19;1824107;78;21131;-49
2021/04/08 05:26:53;;;;;;;15.95;6.15;;;;;;;4.32;66.40;100976.61;1824051;78;21193;-49
2021/04/08 05:29:20;;;;;;;12.40;5.95;;;;;;;4.44;65.81;100969.88;1824172;78;21242;-49
2021/04/08 05:31:48;;;;;;;15.75;5.87;;;;;;;4.53;65.30;100978.24;1824169;78;22466;-48
2021/04/08 05:34:16;;;;;;;13.18;7.00;;;;;;;4.65;64.84;100982.59;1824130;78;21174;-49
2021/04/08 05:36:43;;;;;;;13.25;6.85;;;;;;;4.72;64.61;100977.23;1824105;78;21194;-49
2021/04/08 05:39:11;;;;;;;13.22;6.12;;;;;;;4.81;64.08;100978.94;1824101;78;21095;-49
2021/04/08 05:41:39;;;;;;;10.65;5.55;;;;;;;4.88;63.68;100974.00;1824080;78;21379;-49
2021/04/08 05:44:07;;;;;;;12.37;6.25;;;;;;;4.96;63.75;100977.03;1824035;78;21112;-49
2021/04/08 05:46:35;;;;;;;10.58;5.97;;;;;;;5.03;62.81;100984.09;1824017;78;21118;-49
2021/04/08 05:49:03;;;;;;;11.93;5.65;;;;;;;5.08;62.43;100977.38;1824039;78;21171;-50
2021/04/08 05:51:30;;;;;;;10.35;5.28;;;;;;;5.21;61.70;100971.54;1824144;78;21048;-49
2021/04/08 05:54:00;;;;;;;10.43;5.20;;;;;;;5.21;61.70;100971.54;1824105;78;21323;-49
2021/04/08 05:56:28;;;;;;;10.88;5.53;;;;;;;5.31;61.39;100990.48;1823955;78;21071;-49
2021/04/08 05:58:55;;;;;;;9.80;5.47;;;;;;;5.53;59.36;101004.91;1824134;78;21114;-49
2021/04/08 06:01:23;;;;;;;11.45;5.90;;;;;;;5.53;59.36;101004.91;1824101;78;21118;-49
2021/04/08 06:03:53;;;;;;;11.75;5.80;;;;;;;5.58;58.04;101011.05;1823618;78;21133;-49
2021/04/08 06:06:21;;;;;;;12.82;5.58;;;;;;;5.60;57.74;101009.25;1824030;78;21194;-50
2021/04/08 06:08:49;;;;;;;14.47;5.83;;;;;;;5.64;57.90;100997.70;1823954;78;21091;-49
2021/04/08 06:11:19;;;;;;;10.63;4.43;;;;;;;5.72;57.73;101005.15;1824084;78;21067;-50
2021/04/08 06:13:48;;;;;;;11.30;5.22;;;;;;;5.78;56.61;101029.92;1824095;78;21023;-50
2021/04/08 06:16:17;;;;;;;12.50;5.40;;;;;;;5.80;56.23;101019.70;1824033;78;21086;-49
2021/04/08 06:18:48;;;;;;;13.37;5.00;;;;;;;5.86;56.79;101022.29;1849843;77;21063;-49
2021/04/08 06:21:17;;;;;;;13.62;5.83;;;;;;;5.95;55.92;101034.62;1859369;77;21559;-49
2021/04/08 06:23:52;;;;;;;15.23;5.62;;;;;;;6.01;55.78;101034.56;1799784;77;21504;-49
2021/04/08 06:26:20;;;;;;;21.07;6.60;;;;;;;6.06;54.88;101027.88;1859206;77;21063;-49
2021/04/08 06:28:48;;;;;;;20.88;9.95;;;;;;;6.08;55.05;101030.50;1859433;77;21024;-49
2021/04/08 06:31:18;;;;;;;20.75;9.93;;;;;;;6.13;54.47;101031.34;1854451;77;22243;-49
2021/04/08 06:33:45;;;;;;;14.75;6.20;;;;;;;6.18;54.60;101028.17;1859590;77;21155;-49
2021/04/08 06:36:13;;;;;;;21.17;7.72;;;;;;;6.22;53.30;101041.88;1859522;77;21158;-49
2021/04/08 06:38:41;;;;;;;16.97;6.00;;;;;;;6.23;53.42;101026.33;1859440;77;21131;-49
2021/04/08 06:41:08;;;;;;;13.72;5.87;;;;;;;6.26;52.99;101055.58;1859529;77;21079;-50
2021/04/08 06:43:39;;;;;;;13.75;5.40;;;;;;;6.29;53.15;101051.53;1859458;77;21519;-50
2021/04/08 06:46:12;;;;;;;13.62;7.00;;;;;;;6.35;53.36;101031.08;1859349;77;21472;-50
2021/04/08 06:48:49;;;;;;;12.30;5.95;;;;;;;6.41;53.28;101042.98;1859463;77;21079;-49
2021/04/08 06:51:20;;;;;;;19.15;6.00;;;;;;;6.49;53.26;101036.22;1859416;77;21119;-50
2021/04/08 06:53:49;;;;;;;11.60;5.20;;;;;;;6.52;53.23;101053.05;1859522;77;21040;-49
2021/04/08 06:56:17;;;;;;;16.10;6.40;;;;;;;6.55;51.95;101045.02;1851512;77;21380;-50
2021/04/08 06:58:46;;;;;;;14.25;5.80;;;;;;;6.54;52.67;101061.02;1823920;78;21107;-49
2021/04/08 07:01:18;;;;;;;13.68;6.62;;;;;;;6.57;51.61;101059.20;1821011;78;21114;-49
2021/04/08 07:03:46;;;;;;;10.10;5.30;;;;;;;6.64;52.45;101042.69;1838026;77;21090;-49
2021/04/08 07:06:16;;;;;;;18.80;6.50;;;;;;;6.76;51.32;101040.30;1778358;80;21131;-49
2021/04/08 07:08:44;;;;;;;13.90;7.10;;;;;;;6.85;51.05;101037.91;1778291;80;21223;-50
2021/04/08 07:11:12;;;;;;;17.40;8.30;;;;;;;6.85;50.72;101044.14;1801785;79;21201;-49
2021/04/08 07:13:43;;;;;;;15.78;7.55;;;;;;;6.91;50.75;101058.28;1778213;80;21123;-50
2021/04/08 07:16:14;;;;;;;20.10;8.35;;;;;;;7.00;50.48;101067.48;1801702;79;21558;-53
2021/04/08 07:18:42;;;;;;;29.07;9.85;;;;;;;7.05;50.64;101064.73;1785921;80;21086;-49
2021/04/08 07:21:10;;;;;;;18.70;6.45;;;;;;;7.12;51.31;101057.08;1821642;78;21192;-49
2021/04/08 07:23:38;;;;;;;9.95;5.00;;;;;;;7.26;49.85;101060.86;1789293;80;21066;-49
2021/04/08 07:26:11;;;;;;;9.58;5.00;;;;;;;7.32;48.32;101060.75;1821535;78;21105;-50
2021/04/08 07:28:42;;;;;;;11.33;5.12;;;;;;;7.22;48.98;101077.83;1821694;78;21059;-51
2021/04/08 07:31:28;;;;;;;14.60;6.30;;;;;;;7.15;49.12;101081.90;1789306;80;21125;-51
2021/04/08 07:33:57;;;;;;;11.65;4.90;;;;;;;7.17;48.76;101076.55;1821755;78;21353;-50
2021/04/08 07:36:33;;;;;;;13.20;5.90;;;;;;;7.20;47.28;101059.64;1821484;78;21150;-50
2021/04/08 07:39:07;;;;;;;12.53;5.50;;;;;;;7.26;48.17;101076.86;1821979;78;21471;-51
2021/04/08 07:41:36;;;;;;;11.38;5.22;;;;;;;7.30;45.71;101070.13;1789407;80;21589;-52
2021/04/08 07:44:12;;;;;;;10.50;4.83;;;;;;;7.39;46.33;101070.87;1821915;78;21122;-52
2021/04/08 07:46:43;;;;;;;9.30;4.90;;;;;;;7.46;47.19;101055.18;1789497;80;21357;-52
2021/04/08 07:49:33;;;;;;;10.85;5.00;;;;;;;7.52;46.54;101043.53;1821780;78;21047;-51
2021/04/08 07:52:33;;;;;;;10.50;5.55;;;;;;;7.53;45.36;101070.64;1821808;78;21047;-50
2021/04/08 07:55:15;;;;;;;12.75;6.35;;;;;;;7.55;45.52;101067.48;1822941;78;21304;-52
2021/04/08 07:58:17;;;;;;;15.35;8.08;;;;;;;7.62;46.37;101065.59;1793530;79;21156;-51
2021/04/08 08:00:51;;;;;;;7.40;4.35;;;;;;;7.74;45.98;101070.73;1804873;79;21211;-52
2021/04/08 08:03:33;;;;;;;7.15;4.37;;;;;;;7.84;44.30;101071.41;1820360;78;21048;-51
2021/04/08 08:06:03;;;;;;;9.93;4.53;;;;;;;7.82;43.96;101082.58;1820330;78;21051;-51
2021/04/08 08:08:41;;;;;;;11.95;5.17;;;;;;;7.79;43.55;101067.95;1820406;78;21468;-51
2021/04/08 08:11:14;;;;;;;9.33;4.15;;;;;;;7.86;43.86;101078.97;1820494;78;21496;-52
2021/04/08 08:13:52;;;;;;;9.53;3.92;;;;;;;8.03;42.93;101104.87;1820439;78;22028;-51
2021/04/08 08:16:24;;;;;;;9.43;3.72;;;;;;;8.07;43.76;101104.81;1820258;78;21135;-57
2021/04/08 08:18:57;;;;;;;13.72;4.97;;;;;;;8.02;43.31;101108.45;1820359;78;21147;-51
2021/04/08 08:21:37;;;;;;;7.92;3.98;;;;;;;8.01;43.71;101108.03;1820313;78;21102;-51
2021/04/08 08:24:11;;;;;;;6.58;3.90;;;;;;;8.07;42.68;101107.48;1820328;78;21087;-50
2021/04/08 08:26:44;;;;;;;6.87;4.17;;;;;;;8.15;42.64;101106.91;1820094;78;21385;-52
2021/04/08 08:29:29;;;;;;;10.30;4.42;;;;;;;8.25;43.16;101107.61;1820327;78;21154;-51
2021/04/08 08:32:04;;;;;;;13.65;5.00;;;;;;;8.33;42.76;101113.66;1820345;78;21142;-52
2021/04/08 08:34:39;;;;;;;9.18;3.60;;;;;;;8.47;41.28;101129.42;1820057;78;21170;-51
2021/04/08 08:37:17;;;;;;;16.50;5.50;;;;;;;8.51;39.29;101128.50;1806971;78;21416;-51
2021/04/08 08:39:48;;;;;;;10.78;4.10;;;;;;;8.51;40.25;101140.53;1806057;78;22539;-52
2021/04/08 08:42:19;;;;;;;12.15;4.70;;;;;;;8.52;40.29;101148.97;1820260;78;21122;-51
2021/04/08 08:44:47;;;;;;;10.03;4.80;;;;;;;8.53;40.17;101147.16;1819465;78;21196;-50
2021/04/08 08:47:26;;;;;;;8.83;4.65;;;;;;;8.50;39.95;101150.77;1819803;78;21039;-51
2021/04/08 08:50:11;;;;;;;7.55;3.40;;;;;;;8.53;40.52;101138.70;1819607;78;21178;-51
2021/04/08 08:52:44;;;;;;;6.85;3.80;;;;;;;8.57;40.18;101155.09;1820465;78;22099;-50
2021/04/08 08:55:14;;;;;;;9.90;4.78;;;;;;;8.56;39.81;101150.66;1820101;78;21561;-50
2021/04/08 08:57:46;;;;;;;13.80;6.35;;;;;;;8.47;40.38;101160.15;1820328;78;21456;-50
2021/04/08 09:00:15;;;;;;;12.30;4.80;;;;;;;8.40;40.77;101173.22;1818309;78;21149;-50
2021/04/08 09:02:44;;;;;;;12.63;4.92;;;;;;;8.43;40.68;101170.48;1818587;78;21394;-50
2021/04/08 09:05:18;;;;;;;8.48;4.08;;;;;;;8.53;40.47;101166.77;1744399;79;21283;-51
2021/04/08 09:07:48;;;;;;;9.83;5.42;;;;;;;8.60;40.44;101165.72;1796288;79;21222;-51
2021/04/08 09:10:30;;;;;;;8.20;4.00;;;;;;;8.59;40.73;101171.08;1796146;79;21093;-50
2021/04/08 09:13:01;;;;;;;11.25;3.67;;;;;;;8.65;41.23;101160.73;1796122;79;21070;-50
2021/04/08 09:15:30;;;;;;;9.30;4.62;;;;;;;8.77;40.04;101161.83;1796098;79;21129;-50
2021/04/08 09:18:07;;;;;;;5.95;3.17;;;;;;;8.86;39.64;101173.66;1741399;81;21078;-50
2021/04/08 09:20:38;;;;;;;7.15;3.87;;;;;;;8.87;37.79;101169.20;1723561;79;21125;-50
2021/04/08 09:23:10;;;;;;;7.83;4.15;;;;;;;8.90;39.28;101162.45;1799441;78;21161;-51
2021/04/08 09:25:54;;;;;;;8.05;3.75;;;;;;;8.99;39.96;101158.70;1808811;78;21097;-51
2021/04/08 09:28:31;;;;;;;6.78;4.47;;;;;;;9.09;39.96;101162.91;1797237;79;21192;-50
2021/04/08 09:31:06;;;;;;;10.20;4.20;;;;;;;9.16;39.89;101177.91;1808782;78;21185;-51
2021/04/08 09:33:49;;;;;;;8.83;3.72;;;;;;;9.17;39.89;101164.98;1794129;79;21474;-51
2021/04/08 09:36:27;;;;;;;11.10;4.22;;;;;;;9.24;39.65;101160.34;1796127;79;21102;-50
2021/04/08 09:39:05;;;;;;;8.83;4.28;;;;;;;9.34;39.28;101154.33;1795184;79;21164;-51
2021/04/08 09:41:55;;;;;;;8.88;4.08;;;;;;;9.40;39.52;101147.95;1795432;79;21344;-50
2021/04/08 09:44:22;;;;;;;5.15;3.30;;;;;;;9.31;38.11;101165.11;1796588;79;21521;-51
2021/04/08 09:47:01;;;;;;;7.15;4.22;;;;;;;9.16;38.54;101175.23;1793943;79;21122;-50
2021/04/08 09:49:46;;;;;;;6.47;3.95;;;;;;;9.03;39.40;101166.59;1793676;79;21117;-50
2021/04/08 09:52:17;;;;;;;8.88;4.55;;;;;;;9.03;39.55;101158.58;1795345;79;22279;-50
2021/04/08 09:54:55;;;;;;;10.00;4.20;;;;;;;9.11;39.45;101159.75;1797789;79;21585;-50
2021/04/08 09:57:39;;;;;;;5.22;2.83;;;;;;;9.18;39.10;101147.12;1784330;79;21375;-51
2021/04/08 10:00:14;;;;;;;7.05;3.70;;;;;;;9.25;38.37;101139.36;1788221;79;21188;-51
2021/04/08 10:03:06;;;;;;;6.17;3.30;;;;;;;9.17;37.82;101146.25;1769221;80;21379;-50
2021/04/08 10:05:40;;;;;;;13.05;4.42;;;;;;;9.08;38.27;101145.11;1819595;77;21545;-50
2021/04/08 10:08:10;;;;;;;8.40;4.22;;;;;;;9.14;38.73;101143.62;1810985;79;21059;-51
2021/04/08 10:10:43;;;;;;;12.73;5.12;;;;;;;9.25;38.52;101139.84;1814555;79;21166;-51
2021/04/08 10:13:31;;;;;;;7.92;4.15;;;;;;;9.30;38.94;101135.25;1811064;79;21059;-51
2021/04/08 10:16:04;;;;;;;8.73;4.53;;;;;;;9.43;38.65;101140.75;1815437;79;21212;-51
2021/04/08 10:18:33;;;;;;;8.25;4.75;;;;;;;9.51;38.69;101157.07;1793525;79;21142;-50
2021/04/08 10:21:03;;;;;;;6.90;4.10;;;;;;;9.44;38.75;101149.64;1780764;80;21063;-50
2021/04/08 10:23:40;;;;;;;8.63;3.67;;;;;;;9.40;38.73;101146.17;1780719;80;21410;-50
2021/04/08 10:26:11;;;;;;;16.65;4.35;;;;;;;9.38;38.23;101147.98;1780707;80;21117;-50
2021/04/08 10:28:48;;;;;;;5.37;3.30;;;;;;;9.41;38.43;101147.04;1776666;79;21124;-50
2021/04/08 10:31:22;;;;;;;9.53;4.28;;;;;;;9.41;37.41;101139.91;1762179;81;21172;-50
2021/04/08 10:34:08;;;;;;;5.40;2.58;;;;;;;9.38;37.82;101141.77;1762304;81;21061;-50
2021/04/08 10:36:49;;;;;;;4.70;2.90;;;;;;;9.29;34.59;101142.42;1762188;81;21351;-50
2021/04/08 10:39:20;;;;;;;10.90;3.15;;;;;;;9.23;35.68;101145.69;1762190;81;21571;-50
2021/04/08 10:42:04;;;;;;;4.90;2.87;;;;;;;9.30;35.70;101151.30;1762370;80;21053;-50
2021/04/08 10:44:42;;;;;;;6.12;2.90;;;;;;;9.43;35.28;101136.73;1793364;79;21181;-50
2021/04/08 10:47:21;;;;;;;6.17;3.10;;;;;;;9.55;35.52;101144.02;1810291;79;21174;-50
2021/04/08 10:49:58;;;;;;;7.20;3.67;;;;;;;9.63;35.69;101138.48;1815016;79;21682;-50
2021/04/08 10:52:32;;;;;;;19.48;3.40;;;;;;;9.70;35.81;101136.96;1811064;79;21114;-51
2021/04/08 10:55:10;;;;;;;10.53;3.60;;;;;;;9.80;35.81;101138.95;1815476;79;28083;-50
2021/04/08 10:57:37;;;;;;;4.53;2.70;;;;;;;9.93;35.52;101135.49;1792959;79;21134;-50
2021/04/08 11:00:07;;;;;;;6.97;2.72;;;;;;;10.00;34.95;101127.70;1784993;80;21104;-51
2021/04/08 11:02:40;;;;;;;8.50;2.70;;;;;;;10.05;34.30;101132.95;1786580;80;21365;-50
2021/04/08 11:05:19;;;;;;;6.15;2.52;;;;;;;10.17;34.12;101131.73;1784939;80;21150;-50
2021/04/08 11:07:49;;;;;;;9.38;3.70;;;;;;;10.29;33.81;101141.23;1768472;81;21128;-50
2021/04/08 11:10:27;;;;;;;5.10;2.83;;;;;;;10.32;33.91;101158.13;1788480;80;21106;-50
2021/04/08 11:12:57;;;;;;;7.05;2.98;;;;;;;10.20;34.09;101150.41;1783987;80;21207;-51
2021/04/08 11:15:30;;;;;;;10.25;2.70;;;;;;;10.03;33.89;101154.41;1773161;80;21162;-50
2021/04/08 11:18:11;;;;;;;9.10;3.33;;;;;;;9.98;33.81;101152.31;1777854;80;21509;-50
2021/04/08 11:20:46;;;;;;;5.10;2.62;;;;;;;9.96;33.81;101142.10;1799820;79;21090;-50
2021/04/08 11:23:19;;;;;;;5.72;2.60;;;;;;;10.06;34.11;101137.83;1819889;78;21161;-50
2021/04/08 11:26:06;;;;;;;6.10;2.72;;;;;;;10.12;34.21;101141.70;1778613;79;21130;-50
2021/04/08 11:28:41;;;;;;;5.72;2.47;;;;;;;10.12;33.76;101147.06;1776074;80;22331;-51
2021/04/08 11:31:15;;;;;;;7.15;3.00;;;;;;;10.12;34.00;101143.91;1781596;80;21614;-49
2021/04/08 11:33:44;;;;;;;8.98;2.85;;;;;;;10.20;33.63;101139.69;1778100;80;21147;-52
2021/04/08 11:36:20;;;;;;;6.00;2.60;;;;;;;10.28;33.83;101137.70;1813701;79;21162;-50
2021/04/08 11:38:49;;;;;;;;;;;;;;;10.40;33.44;101147.64;1788782;80;21699;-50
2021/04/08 11:41:17;;;;;;;5.97;3.02;;;;;;;10.50;33.81;101141.15;1799884;79;21525;-50
2021/04/08 11:43:50;;;;;;;8.40;2.60;;;;;;;10.54;32.92;101156.22;1784157;80;21163;-50
2021/04/08 11:46:35;;;;;;;9.15;2.77;;;;;;;10.39;32.38;101148.56;1767882;80;21201;-51
2021/04/08 11:49:16;;;;;;;4.35;2.70;;;;;;;10.26;31.79;101141.33;1787998;80;21173;-51